Flight Track Log - Related Links

Times and Time Zones

All times are in EDT time to prevent confusion due to time zone crossing. See the LXJ533 flight status page for this flight to view local times or setup timezone preferences in your user account.

Time Position Orientation Groundspeed Altitude Reporting Facility
EDT Latitude Longitude Course Direction KTS MPH feet Rate Location/Type
Sun 08:07:47 PM 25.0703 -77.3542 24° Northeast 278 320 7,500  Level Miami Center
Sun 08:08:48 PM 25.1492 -77.3275 17° North 292 336 10,600 3,122 Climbing Miami Center
Sun 08:09:50 PM 25.2364 -77.3000 16° North 304 350 13,900 3,073 Climbing Miami Center
Sun 08:10:51 PM 25.3247 -77.2694 17° North 322 371 16,900 2,852 Climbing Miami Center
Sun 08:11:00 PM 25.6271 -77.1307 27° Northeast  Level FlightAware Approximate
Sun 08:11:52 PM 25.4231 -77.2375 16° North 353 406 19,700  Level Miami Center
Sun 08:12:00 PM 25.7304 -77.0726 27° Northeast  Level FlightAware Approximate
Sun 08:12:53 PM 25.5283 -77.1903 22° Northeast 372 428 22,900  Level Miami Center
Sun 08:13:00 PM 25.8344 -77.0161 24° Northeast  Level FlightAware Approximate
Sun 08:13:55 PM 25.6297 -77.1714 10° North 386 444 25,100  Level Miami Center
Sun 08:14:56 PM 25.7572 -77.1919 352° North 409 471 27,200 2,016 Climbing Miami Center
Sun 08:15:57 PM 25.8739 -77.2122 351° North 416 479 29,200 2,016 Climbing Miami Center
Sun 08:16:58 PM 25.9944 -77.2347 350° North 429 494 31,300 2,016 Climbing Miami Center
Sun 08:17:59 PM 26.1153 -77.2569 351° North 436 502 33,300 1,951 Climbing Miami Center
Sun 08:19:01 PM 26.2364 -77.2794 351° North 438 504 35,300 1,854 Climbing Miami Center
Sun 08:20:02 PM 26.3581 -77.3014 351° North 438 504 37,100 1,377 Climbing Miami Center
Sun 08:21:03 PM 26.4797 -77.3239 351° North 440 506 38,100 934 Climbing Miami Center
Sun 08:22:04 PM 26.6061 -77.3475 351° North 454 522 39,000 443 Climbing Miami Center
Sun 08:23:05 PM 26.7317 -77.3708 351° North 457 526 39,000  Level Miami Center
Sun 08:24:06 PM 26.8575 -77.3942 351° North 458 527 39,000  Level Miami Center
Sun 08:25:07 PM 27.0053 -77.4211 351° North 450 518 39,000  Level Miami Center
Sun 08:26:09 PM 27.1253 -77.4436 351° North 443 510 39,000  Level Miami Center
Sun 08:27:10 PM 27.2456 -77.4661 351° North 441 507 39,000  Level Miami Center
Sun 08:28:11 PM 27.3694 -77.4894 351° North 448 516 39,000  Level Miami Center
Sun 08:29:12 PM 27.5081 -77.5156 351° North 461 531 39,000  Level Miami Center
Sun 08:30:13 PM 27.6344 -77.5389 351° North 462 532 39,000  Level Miami Center
Sun 08:31:14 PM 27.7619 -77.5631 350° North 462 532 39,000  Level Miami Center
Sun 08:32:15 PM 27.8897 -77.5875 350° North 464 534 39,000  Level Miami Center
Sun 08:33:16 PM 28.0167 -77.6117 350° North 464 534 39,000  Level Miami Center
Sun 08:34:17 PM 28.1433 -77.6328 352° North 464 534 39,000  Level Miami Center
Sun 08:35:18 PM 28.2739 -77.6408 357° North 465 535 39,000  Level Miami Center
Sun 08:36:19 PM 28.4014 -77.6467 358° North 465 535 39,000  Level Miami Center
Sun 08:37:20 PM 28.5333 -77.6536 357° North 465 535 39,000  Level Miami Center
Sun 08:38:21 PM 28.6611 -77.6594 358° North 465 535 39,000  Level Miami Center
Sun 08:39:22 PM 28.7936 -77.6664 357° North 467 537 39,000  Level Miami Center
Sun 08:40:23 PM 28.9500 -77.6744 357° North 470 541 39,000  Level Miami Center
Sun 08:41:24 PM 29.0775 -77.6811 357° North 467 537 39,000  Level Miami Center
Sun 08:42:25 PM 29.2078 -77.6875 358° North 467 537 39,000  Level Miami Center
Sun 08:43:26 PM 29.3389 -77.6944 357° North 467 537 39,000  Level Miami Center
Sun 08:44:27 PM 29.4675 -77.7014 357° North 467 537 39,000  Level Miami Center
Sun 08:45:28 PM 29.5981 -77.7081 357° North 467 537 39,000  Level Miami Center
Sun 08:46:29 PM 29.7303 -77.7150 357° North 469 540 39,000  Level Miami Center
Sun 08:47:30 PM 29.8600 -77.7183 359° North 470 541 39,000  Level Miami Center
Sun 08:48:31 PM 29.9908 -77.7206 359° North 470 541 39,000  Level Miami Center
Sun 08:49:32 PM 30.1219 -77.7214 360° North 470 541 39,000  Level Miami Center
Sun 08:50:33 PM 30.2542 -77.7244 359° North 471 542 39,000  Level Miami Center
Sun 08:51:34 PM 30.3953 -77.7247 360° North 471 542 39,000  Level Miami Center
Sun 08:52:35 PM 30.5267 -77.7264 359° North 471 542 39,000  Level Miami Center
Sun 08:53:48 PM 30.6981 -77.7206 North 474 545 39,000  Level Jacksonville Center
Sun 08:54:47 PM 30.8297 -77.7281 357° North 474 545 39,000  Level Jacksonville Center
Sun 08:55:48 PM 30.9592 -77.7281 360° North 469 540 39,000  Level Jacksonville Center
Sun 08:56:48 PM 31.0889 -77.7331 358° North 469 540 39,000  Level Jacksonville Center
Sun 08:57:47 PM 31.2169 -77.7553 352° North 463 533 39,000  Level Jacksonville Center
Sun 08:58:48 PM 31.3358 -77.8047 340° North 451 519 39,000  Level Jacksonville Center
Sun 08:59:48 PM 31.4567 -77.8467 344° North 456 525 39,000  Level Jacksonville Center
Sun 09:00:48 PM 31.5825 -77.8619 354° North 456 525 39,000  Level Jacksonville Center
Sun 09:01:47 PM 31.7117 -77.8622 360° North 456 525 39,000  Level Jacksonville Center
Sun 09:02:48 PM 31.8411 -77.8575 North 456 525 39,000  Level Jacksonville Center
Sun 09:03:47 PM 31.9664 -77.8631 358° North 456 525 39,000  Level Jacksonville Center
Sun 09:04:47 PM 32.0956 -77.8536 North 456 525 39,000  Level Jacksonville Center
Sun 09:05:47 PM 32.2208 -77.8564 359° North 456 525 39,000  Level Jacksonville Center
Sun 09:06:48 PM 32.3503 -77.8567 360° North 461 531 39,000  Level Jacksonville Center
Sun 09:07:48 PM 32.4756 -77.8594 359° North 461 531 39,000  Level Jacksonville Center
Sun 09:08:48 PM 32.6006 -77.8525 North 456 525 39,000  Level Jacksonville Center
Sun 09:09:47 PM 32.7303 -77.8578 358° North 456 525 39,000  Level Jacksonville Center
Sun 09:10:48 PM 32.8553 -77.8533 North 456 525 39,000  Level Jacksonville Center
Sun 09:13:13 PM 33.1597 -77.8536 360° North 455 524 39,000  Level Washington Center
Sun 09:14:14 PM 33.2828 -77.8544 360° North 455 524 39,000  Level Washington Center
Sun 09:15:11 PM 33.4078 -77.8528 North 455 524 39,000  Level Washington Center
Sun 09:16:11 PM 33.5308 -77.8536 360° North 450 518 39,000  Level Washington Center
Sun 09:17:12 PM 33.6561 -77.8519 North 439 505 39,000  Level Washington Center
Sun 09:18:13 PM 33.7772 -77.8503 North 439 505 39,000  Level Washington Center
Sun 09:19:11 PM 33.8772 -77.8481 North 439 505 39,000  Level Washington Center
Sun 09:20:12 PM 34.0317 -77.8472 360° North 449 517 39,000  Level Washington Center
Sun 09:21:12 PM 34.1528 -77.8481 360° North 449 517 39,000  Level Washington Center
Sun 09:22:11 PM 34.2758 -77.8439 North 444 511 39,000  Level Washington Center
Sun 09:23:12 PM 34.4031 -77.8497 358° North 439 505 39,000  Level Washington Center
Sun 09:24:13 PM 34.5261 -77.8483 North 439 505 39,000  Level Washington Center
Sun 09:25:12 PM 34.6450 -77.8489 360° North 439 505 39,000  Level Washington Center
Sun 09:26:13 PM 34.7681 -77.8472 North 439 505 39,000  Level Washington Center
Sun 09:27:13 PM 34.8872 -77.8431 North 439 505 39,000  Level Washington Center
Sun 09:28:12 PM 35.0083 -77.8414 North 439 505 39,000  Level Washington Center
Sun 09:29:12 PM 35.1314 -77.8422 360° North 439 505 39,000  Level Washington Center
Sun 09:30:12 PM 35.2525 -77.8381 North 439 505 39,000  Level Washington Center
Sun 09:31:13 PM 35.3733 -77.8389 360° North 439 505 39,000  Level Washington Center
Sun 09:32:11 PM 35.4986 -77.8372 North 439 505 39,000  Level Washington Center
Sun 09:33:13 PM 35.6197 -77.8381 360° North 439 505 39,000  Level Washington Center
Sun 09:34:11 PM 35.7303 -77.8386 360° North 439 505 39,000  Level Washington Center
Sun 09:35:12 PM 35.8533 -77.8394 360° North 439 505 39,000  Level Washington Center
Sun 09:36:13 PM 35.9744 -77.8403 360° North 439 505 39,000  Level Washington Center
Sun 09:37:11 PM 36.0975 -77.8386 North 439 505 39,000  Level Washington Center
Sun 09:38:12 PM 36.2225 -77.8397 360° North 439 505 39,000  Level Washington Center
Sun 09:39:12 PM 36.3436 -77.8381 North 439 505 39,000  Level Washington Center
Sun 09:40:13 PM 36.4606 -77.8389 360° North 433 498 39,000  Level Washington Center
Sun 09:41:13 PM 36.5836 -77.8372 North 426 490 39,000  Level Washington Center
Sun 09:42:11 PM 36.7089 -77.8383 360° North 433 498 39,000  Level Washington Center
Sun 09:43:11 PM 36.8300 -77.8339 North 439 505 39,000  Level Washington Center
Sun 09:44:12 PM 36.9550 -77.8350 360° North 439 505 39,000  Level Washington Center
Sun 09:45:13 PM 37.0781 -77.8333 North 439 505 39,000  Level Washington Center
Sun 09:46:12 PM 37.2011 -77.8317 North 439 505 39,000  Level Washington Center
Sun 09:47:13 PM 37.3244 -77.8328 360° North 439 505 39,000  Level Washington Center
Sun 09:48:11 PM 37.4475 -77.8311 North 439 505 39,000  Level Washington Center
Sun 09:49:12 PM 37.5628 -77.7953 14° North 439 505 39,000  Level Washington Center
Sun 09:50:13 PM 37.6622 -77.7114 34° Northeast 416 479 39,000  Level Washington Center
Sun 09:51:13 PM 37.7597 -77.6250 35° Northeast 416 479 39,000  Level Washington Center
Sun 09:52:11 PM 37.8572 -77.5328 37° Northeast 427 491 39,000  Level Washington Center
Sun 09:53:13 PM 37.9547 -77.4431 36° Northeast 437 503 39,000 -950 Level Washington Center
Sun 09:54:11 PM 38.0497 -77.3533 37° Northeast 437 503 37,100 -1,966 Descending Washington Center
Sun 09:55:12 PM 38.1511 -77.2606 36° Northeast 432 497 35,100 -1,900 Descending Washington Center
Sun 09:56:11 PM 38.2525 -77.1675 36° Northeast 437 503 33,300 -1,050 Descending Washington Center
Sun 09:57:12 PM 38.3517 -77.0769 36° Northeast 438 504 33,000 -149 Descending Washington Center
Sun 09:58:12 PM 38.4531 -76.9808 37° Northeast 438 504 33,000  Level Washington Center
Sun 09:59:13 PM 38.5542 -76.8872 36° Northeast 443 510 33,000  Level Washington Center
Sun 10:00:12 PM 38.6550 -76.7906 37° Northeast 449 517 33,000 -1,050 Level Washington Center
Sun 10:01:13 PM 38.7519 -76.6911 39° Northeast 449 517 30,900 -2,269 Descending Washington Center
Sun 10:02:11 PM 38.8467 -76.5806 42° Northeast 449 517 28,500 -2,390 Descending Washington Center
Sun 10:03:11 PM 38.9436 -76.4725 41° Northeast 449 517 26,200 -2,213 Descending Washington Center
Sun 10:04:13 PM 39.0339 -76.3667 42° Northeast 451 519 24,000 -1,100 Descending Washington Center
Sun 10:05:11 PM 39.1094 -76.2764 43° Northeast 410 472 24,000  Level Washington Center
Sun 10:06:11 PM 39.1911 -76.2264 25° Northeast 368 423 24,000 -50 Level Washington Center
Sun 10:07:11 PM 39.2744 -76.1894 19° North 322 371 23,900 -1,240 Descending Washington Center
Sun 10:08:12 PM 39.2981 -76.0503 78° East 290 334 21,500 -1,660 Descending Washington Center
Sun 10:10:19 PM 39.4667 -75.9000 35° Northeast 329 379 18,700 -1,326 Descending Philadelphia TRACON
Sun 10:11:13 PM 39.5333 -75.8333 38° Northeast 328 377 17,500 -1,316 Descending Philadelphia TRACON
Sun 10:12:13 PM 39.6000 -75.7667 38° Northeast 307 353 16,200 -1,300 Descending Philadelphia TRACON
Sun 10:13:13 PM 39.6667 -75.7000 38° Northeast 321 369 14,900 -1,240 Descending Philadelphia TRACON
Sun 10:14:14 PM 39.7500 -75.6500 25° Northeast 301 346 13,700 -992 Descending Philadelphia TRACON
Sun 10:15:14 PM 39.8167 -75.5833 38° Northeast 294 338 12,900 -333 Descending Philadelphia TRACON
Sun 10:16:20 PM 39.8833 -75.5167 37° Northeast 307 353 13,000  Climbing Philadelphia TRACON
Sun 10:17:20 PM 39.9500 -75.4500 37° Northeast 296 341 12,900  Descending Philadelphia TRACON
Sun 10:18:20 PM 40.0167 -75.4000 30° Northeast 293 337 13,000 50 Climbing Philadelphia TRACON
Sun 10:19:20 PM 40.0833 -75.3333 37° Northeast 296 341 13,000 -100 Level Philadelphia TRACON
Sun 10:20:20 PM 40.1500 -75.2667 37° Northeast 305 351 12,800 -852 Descending Philadelphia TRACON
Sun 10:21:55 PM 40.2667 -75.1667 33° Northeast 290 334 10,800 -1,394 Descending New York TRACON
Sun 10:22:55 PM 40.3333 -75.1000 37° Northeast 289 333 9,200 -1,550 Descending New York TRACON
Sun 10:23:55 PM 40.3833 -75.0333 45° Northeast 285 328 7,700 -1,200 Descending New York TRACON
Sun 10:24:55 PM 40.4333 -74.9500 52° Northeast 279 321 6,800 -1,300 Descending New York TRACON
Sun 10:25:55 PM 40.4833 -74.8833 45° Northeast 269 310 5,100 -1,350 Descending New York TRACON
Sun 10:26:55 PM 40.5333 -74.8167 45° Northeast 257 296 4,100 -500 Descending New York TRACON
Sun 10:27:55 PM 40.5833 -74.7500 45° Northeast 263 303 4,100  Level New York TRACON
Sun 10:28:55 PM 40.6500 -74.7000 30° Northeast 259 298 4,100  Level New York TRACON
Sun 10:29:55 PM 40.7000 -74.6500 37° Northeast 250 288 4,100  Level New York TRACON
Sun 10:30:49 PM 40.7667 -74.6167 21° North 260 299 4,100 -421 Level New York TRACON
Sun 10:31:49 PM 40.8167 -74.5500 45° Northeast 241 277 3,300 -500 Descending New York TRACON
Sun 10:32:49 PM 40.8667 -74.4833 45° Northeast 237 273 3,100 -100 Descending New York TRACON
Sun 10:33:49 PM 40.9000 -74.4167 57° Northeast 255 293 3,100 -250 Level New York TRACON
Sun 10:34:49 PM 40.9500 -74.3500 45° Northeast 261 300 2,600 -500 Descending New York TRACON
Sun 10:35:49 PM 40.9833 -74.2667 62° Northeast 245 282 2,100 -250 Descending New York TRACON
Sun 10:36:49 PM 41.0167 -74.2000 56° Northeast 252 290 2,100  Level New York TRACON
Sun 10:37:49 PM 41.0333 -74.1167 75° East 230 265 2,100  Level New York TRACON
Sun 10:38:49 PM 41.0167 -74.0500 108° East 201 231 2,100  Level New York TRACON
Sun 10:39:49 PM 40.9667 -74.0500 180° South 160 184 2,100 -250 Level New York TRACON
Sun 10:40:49 PM 40.9333 -74.0500 180° South 134 154 1,600 -667 Descending New York TRACON
Sun 10:41:55 PM 40.8833 -74.0500 180° South 131 151 700 -818 Descending New York TRACON

Login

Don't have an account? Register now (free) for customized features, flight alerts, and more!